sensor_id;sensor_type;location;lat;lon;timestamp;P1;durP1;ratioP1;P2;durP2;ratioP2
64686;SDS011;51113;53.646;-113.674;2023-04-24T00:01:02;3.65;;;1.35;;
64686;SDS011;51113;53.646;-113.674;2023-04-24T00:03:30;5.70;;;1.42;;
64686;SDS011;51113;53.646;-113.674;2023-04-24T00:06:00;5.13;;;1.10;;
64686;SDS011;51113;53.646;-113.674;2023-04-24T00:08:30;5.03;;;1.25;;
64686;SDS011;51113;53.646;-113.674;2023-04-24T00:10:59;6.13;;;1.30;;
64686;SDS011;51113;53.646;-113.674;2023-04-24T00:13:27;6.70;;;1.23;;
64686;SDS011;51113;53.646;-113.674;2023-04-24T00:15:56;3.58;;;1.00;;
64686;SDS011;51113;53.646;-113.674;2023-04-24T00:18:24;6.15;;;1.30;;
64686;SDS011;51113;53.646;-113.674;2023-04-24T00:20:53;3.83;;;0.98;;
64686;SDS011;51113;53.646;-113.674;2023-04-24T00:23:21;3.70;;;1.02;;
64686;SDS011;51113;53.646;-113.674;2023-04-24T00:25:50;8.13;;;1.27;;
64686;SDS011;51113;53.646;-113.674;2023-04-24T00:28:19;4.22;;;1.10;;
64686;SDS011;51113;53.646;-113.674;2023-04-24T00:30:48;3.60;;;1.23;;
64686;SDS011;51113;53.646;-113.674;2023-04-24T00:33:17;3.35;;;1.30;;
64686;SDS011;51113;53.646;-113.674;2023-04-24T00:35:45;2.42;;;1.10;;
64686;SDS011;51113;53.646;-113.674;2023-04-24T00:38:14;4.05;;;1.45;;
64686;SDS011;51113;53.646;-113.674;2023-04-24T00:40:43;2.05;;;1.10;;
64686;SDS011;51113;53.646;-113.674;2023-04-24T00:43:11;6.20;;;1.20;;
64686;SDS011;51113;53.646;-113.674;2023-04-24T00:45:40;2.72;;;1.20;;
64686;SDS011;51113;53.646;-113.674;2023-04-24T00:48:09;5.18;;;1.50;;
64686;SDS011;51113;53.646;-113.674;2023-04-24T00:50:38;2.40;;;1.13;;
64686;SDS011;51113;53.646;-113.674;2023-04-24T00:53:07;10.15;;;1.20;;
64686;SDS011;51113;53.646;-113.674;2023-04-24T00:55:36;3.88;;;1.15;;
64686;SDS011;51113;53.646;-113.674;2023-04-24T00:58:05;3.30;;;1.15;;
64686;SDS011;51113;53.646;-113.674;2023-04-24T01:00:34;2.63;;;1.10;;
64686;SDS011;51113;53.646;-113.674;2023-04-24T01:03:03;3.63;;;1.27;;
64686;SDS011;51113;53.646;-113.674;2023-04-24T01:05:34;7.72;;;1.33;;
64686;SDS011;51113;53.646;-113.674;2023-04-24T01:08:02;7.28;;;1.30;;
64686;SDS011;51113;53.646;-113.674;2023-04-24T01:10:31;2.55;;;1.23;;
64686;SDS011;51113;53.646;-113.674;2023-04-24T01:13:02;4.20;;;1.40;;
64686;SDS011;51113;53.646;-113.674;2023-04-24T01:15:31;5.90;;;1.30;;
64686;SDS011;51113;53.646;-113.674;2023-04-24T01:18:00;1.85;;;0.93;;
64686;SDS011;51113;53.646;-113.674;2023-04-24T01:20:29;1.80;;;1.10;;
64686;SDS011;51113;53.646;-113.674;2023-04-24T01:22:59;5.47;;;1.40;;
64686;SDS011;51113;53.646;-113.674;2023-04-24T01:25:28;1.77;;;1.20;;
64686;SDS011;51113;53.646;-113.674;2023-04-24T01:27:59;2.50;;;1.00;;
64686;SDS011;51113;53.646;-113.674;2023-04-24T01:30:28;2.50;;;1.42;;
64686;SDS011;51113;53.646;-113.674;2023-04-24T01:32:57;9.88;;;1.40;;
64686;SDS011;51113;53.646;-113.674;2023-04-24T01:35:27;10.10;;;1.92;;
64686;SDS011;51113;53.646;-113.674;2023-04-24T01:37:56;2.10;;;1.40;;
64686;SDS011;51113;53.646;-113.674;2023-04-24T01:40:25;3.28;;;1.52;;
64686;SDS011;51113;53.646;-113.674;2023-04-24T01:42:53;5.75;;;1.27;;
64686;SDS011;51113;53.646;-113.674;2023-04-24T01:45:23;3.60;;;1.45;;
64686;SDS011;51113;53.646;-113.674;2023-04-24T01:47:52;1.73;;;1.02;;
64686;SDS011;51113;53.646;-113.674;2023-04-24T01:50:21;7.82;;;1.35;;
64686;SDS011;51113;53.646;-113.674;2023-04-24T01:52:49;2.53;;;1.27;;
64686;SDS011;51113;53.646;-113.674;2023-04-24T01:55:18;3.65;;;1.15;;
64686;SDS011;51113;53.646;-113.674;2023-04-24T01:57:47;3.25;;;1.10;;
64686;SDS011;51113;53.646;-113.674;2023-04-24T02:00:17;3.30;;;1.17;;
64686;SDS011;51113;53.646;-113.674;2023-04-24T02:02:45;1.98;;;1.20;;
64686;SDS011;51113;53.646;-113.674;2023-04-24T02:05:15;4.72;;;1.30;;
64686;SDS011;51113;53.646;-113.674;2023-04-24T02:07:43;2.25;;;1.13;;
64686;SDS011;51113;53.646;-113.674;2023-04-24T02:10:12;2.10;;;1.02;;
64686;SDS011;51113;53.646;-113.674;2023-04-24T02:12:40;2.90;;;1.02;;
64686;SDS011;51113;53.646;-113.674;2023-04-24T02:15:09;5.07;;;1.17;;
64686;SDS011;51113;53.646;-113.674;2023-04-24T02:17:39;5.43;;;1.10;;
64686;SDS011;51113;53.646;-113.674;2023-04-24T02:20:08;3.10;;;1.10;;
64686;SDS011;51113;53.646;-113.674;2023-04-24T02:22:36;1.10;;;0.93;;
64686;SDS011;51113;53.646;-113.674;2023-04-24T02:25:05;4.57;;;1.30;;
64686;SDS011;51113;53.646;-113.674;2023-04-24T02:27:34;3.10;;;1.38;;
64686;SDS011;51113;53.646;-113.674;2023-04-24T02:30:03;1.95;;;1.08;;
64686;SDS011;51113;53.646;-113.674;2023-04-24T02:32:32;4.18;;;1.20;;
64686;SDS011;51113;53.646;-113.674;2023-04-24T02:35:01;2.90;;;1.02;;
64686;SDS011;51113;53.646;-113.674;2023-04-24T02:37:30;1.85;;;1.30;;
64686;SDS011;51113;53.646;-113.674;2023-04-24T02:39:58;1.30;;;1.08;;
64686;SDS011;51113;53.646;-113.674;2023-04-24T02:42:26;3.42;;;1.13;;
64686;SDS011;51113;53.646;-113.674;2023-04-24T02:44:54;4.53;;;1.20;;
64686;SDS011;51113;53.646;-113.674;2023-04-24T02:47:23;5.07;;;1.17;;
64686;SDS011;51113;53.646;-113.674;2023-04-24T02:49:51;3.05;;;1.00;;
64686;SDS011;51113;53.646;-113.674;2023-04-24T02:52:19;5.10;;;1.23;;
64686;SDS011;51113;53.646;-113.674;2023-04-24T02:54:48;4.43;;;1.17;;
64686;SDS011;51113;53.646;-113.674;2023-04-24T02:57:17;5.90;;;1.10;;
64686;SDS011;51113;53.646;-113.674;2023-04-24T02:59:46;4.95;;;1.20;;
64686;SDS011;51113;53.646;-113.674;2023-04-24T03:02:14;3.80;;;1.30;;
64686;SDS011;51113;53.646;-113.674;2023-04-24T03:04:43;4.22;;;1.20;;
64686;SDS011;51113;53.646;-113.674;2023-04-24T03:07:12;3.03;;;1.30;;
64686;SDS011;51113;53.646;-113.674;2023-04-24T03:09:41;2.28;;;1.20;;
64686;SDS011;51113;53.646;-113.674;2023-04-24T03:12:11;3.45;;;1.27;;
64686;SDS011;51113;53.646;-113.674;2023-04-24T03:14:39;2.42;;;1.20;;
64686;SDS011;51113;53.646;-113.674;2023-04-24T03:17:08;1.98;;;1.08;;
64686;SDS011;51113;53.646;-113.674;2023-04-24T03:19:37;5.45;;;1.15;;
64686;SDS011;51113;53.646;-113.674;2023-04-24T03:22:06;2.85;;;1.20;;
64686;SDS011;51113;53.646;-113.674;2023-04-24T03:24:37;3.42;;;1.30;;
64686;SDS011;51113;53.646;-113.674;2023-04-24T03:27:05;2.55;;;1.20;;
64686;SDS011;51113;53.646;-113.674;2023-04-24T03:29:33;1.65;;;1.10;;
64686;SDS011;51113;53.646;-113.674;2023-04-24T03:32:02;5.35;;;1.00;;
64686;SDS011;51113;53.646;-113.674;2023-04-24T03:34:31;2.90;;;1.20;;
64686;SDS011;51113;53.646;-113.674;2023-04-24T03:36:59;2.67;;;1.00;;
64686;SDS011;51113;53.646;-113.674;2023-04-24T03:39:28;1.88;;;1.17;;
64686;SDS011;51113;53.646;-113.674;2023-04-24T03:41:57;4.03;;;1.20;;
64686;SDS011;51113;53.646;-113.674;2023-04-24T03:44:25;2.90;;;1.13;;
64686;SDS011;51113;53.646;-113.674;2023-04-24T03:46:54;2.95;;;1.10;;
64686;SDS011;51113;53.646;-113.674;2023-04-24T03:49:23;1.67;;;1.00;;
64686;SDS011;51113;53.646;-113.674;2023-04-24T03:51:51;4.00;;;1.30;;
64686;SDS011;51113;53.646;-113.674;2023-04-24T03:54:20;3.58;;;1.02;;
64686;SDS011;51113;53.646;-113.674;2023-04-24T03:56:49;4.20;;;1.20;;
64686;SDS011;51113;53.646;-113.674;2023-04-24T03:59:18;2.28;;;1.17;;
64686;SDS011;51113;53.646;-113.674;2023-04-24T04:01:47;2.13;;;1.15;;
64686;SDS011;51113;53.646;-113.674;2023-04-24T04:04:16;3.10;;;1.10;;
64686;SDS011;51113;53.646;-113.674;2023-04-24T04:06:45;4.78;;;1.13;;
64686;SDS011;51113;53.646;-113.674;2023-04-24T04:09:14;3.00;;;1.10;;
64686;SDS011;51113;53.646;-113.674;2023-04-24T04:11:43;4.38;;;1.30;;
64686;SDS011;51113;53.646;-113.674;2023-04-24T04:14:11;2.88;;;1.30;;
64686;SDS011;51113;53.646;-113.674;2023-04-24T04:16:40;1.73;;;1.05;;
64686;SDS011;51113;53.646;-113.674;2023-04-24T04:19:10;1.70;;;1.08;;
64686;SDS011;51113;53.646;-113.674;2023-04-24T04:21:38;1.70;;;1.10;;
64686;SDS011;51113;53.646;-113.674;2023-04-24T04:24:07;2.20;;;1.38;;
64686;SDS011;51113;53.646;-113.674;2023-04-24T04:26:37;1.55;;;1.00;;
64686;SDS011;51113;53.646;-113.674;2023-04-24T04:29:06;4.03;;;1.00;;
64686;SDS011;51113;53.646;-113.674;2023-04-24T04:31:35;5.45;;;1.10;;
64686;SDS011;51113;53.646;-113.674;2023-04-24T04:34:04;3.22;;;1.33;;
64686;SDS011;51113;53.646;-113.674;2023-04-24T04:36:33;3.70;;;1.00;;
64686;SDS011;51113;53.646;-113.674;2023-04-24T04:39:04;4.22;;;1.40;;
64686;SDS011;51113;53.646;-113.674;2023-04-24T04:41:32;5.35;;;1.30;;
64686;SDS011;51113;53.646;-113.674;2023-04-24T04:44:03;6.07;;;1.33;;
64686;SDS011;51113;53.646;-113.674;2023-04-24T04:46:32;2.38;;;1.17;;
64686;SDS011;51113;53.646;-113.674;2023-04-24T04:49:01;4.93;;;1.35;;
64686;SDS011;51113;53.646;-113.674;2023-04-24T04:51:30;4.70;;;1.13;;
64686;SDS011;51113;53.646;-113.674;2023-04-24T04:53:59;3.90;;;1.40;;
64686;SDS011;51113;53.646;-113.674;2023-04-24T04:56:28;1.95;;;1.15;;
64686;SDS011;51113;53.646;-113.674;2023-04-24T04:58:57;2.15;;;1.30;;
64686;SDS011;51113;53.646;-113.674;2023-04-24T05:01:27;3.20;;;1.10;;
64686;SDS011;51113;53.646;-113.674;2023-04-24T05:03:55;3.78;;;1.23;;
64686;SDS011;51113;53.646;-113.674;2023-04-24T05:06:24;2.63;;;1.35;;
64686;SDS011;51113;53.646;-113.674;2023-04-24T05:08:54;8.60;;;1.20;;
64686;SDS011;51113;53.646;-113.674;2023-04-24T05:11:25;3.75;;;1.50;;
64686;SDS011;51113;53.646;-113.674;2023-04-24T05:13:53;2.67;;;1.23;;
64686;SDS011;51113;53.646;-113.674;2023-04-24T05:16:22;2.70;;;1.27;;
64686;SDS011;51113;53.646;-113.674;2023-04-24T05:18:51;1.75;;;1.00;;
64686;SDS011;51113;53.646;-113.674;2023-04-24T05:21:20;2.88;;;1.20;;
64686;SDS011;51113;53.646;-113.674;2023-04-24T05:23:48;2.05;;;1.10;;
64686;SDS011;51113;53.646;-113.674;2023-04-24T05:26:18;2.72;;;1.05;;
64686;SDS011;51113;53.646;-113.674;2023-04-24T05:28:47;2.03;;;1.30;;
64686;SDS011;51113;53.646;-113.674;2023-04-24T05:31:15;2.03;;;1.17;;
64686;SDS011;51113;53.646;-113.674;2023-04-24T05:33:45;4.25;;;1.27;;
64686;SDS011;51113;53.646;-113.674;2023-04-24T05:36:14;6.25;;;1.40;;
64686;SDS011;51113;53.646;-113.674;2023-04-24T05:38:42;4.15;;;1.40;;
64686;SDS011;51113;53.646;-113.674;2023-04-24T05:41:11;3.47;;;1.30;;
64686;SDS011;51113;53.646;-113.674;2023-04-24T05:43:40;2.70;;;1.10;;
64686;SDS011;51113;53.646;-113.674;2023-04-24T05:46:08;5.28;;;1.25;;
64686;SDS011;51113;53.646;-113.674;2023-04-24T05:48:36;2.17;;;1.20;;
64686;SDS011;51113;53.646;-113.674;2023-04-24T05:51:09;1.92;;;1.20;;
64686;SDS011;51113;53.646;-113.674;2023-04-24T05:53:37;3.88;;;1.40;;
64686;SDS011;51113;53.646;-113.674;2023-04-24T05:56:07;1.83;;;1.30;;
64686;SDS011;51113;53.646;-113.674;2023-04-24T05:58:36;2.25;;;1.17;;
64686;SDS011;51113;53.646;-113.674;2023-04-24T06:01:05;1.95;;;1.20;;
64686;SDS011;51113;53.646;-113.674;2023-04-24T06:03:33;3.88;;;1.25;;
64686;SDS011;51113;53.646;-113.674;2023-04-24T06:06:03;2.92;;;1.38;;
64686;SDS011;51113;53.646;-113.674;2023-04-24T06:08:32;4.30;;;1.38;;
64686;SDS011;51113;53.646;-113.674;2023-04-24T06:11:00;3.92;;;1.30;;
64686;SDS011;51113;53.646;-113.674;2023-04-24T06:13:30;4.13;;;1.50;;
64686;SDS011;51113;53.646;-113.674;2023-04-24T06:15:58;5.75;;;2.15;;
64686;SDS011;51113;53.646;-113.674;2023-04-24T06:18:27;4.32;;;1.30;;
64686;SDS011;51113;53.646;-113.674;2023-04-24T06:20:55;3.53;;;1.25;;
64686;SDS011;51113;53.646;-113.674;2023-04-24T06:23:24;2.58;;;1.30;;
64686;SDS011;51113;53.646;-113.674;2023-04-24T06:25:53;5.25;;;1.40;;
64686;SDS011;51113;53.646;-113.674;2023-04-24T06:28:22;3.72;;;1.33;;
64686;SDS011;51113;53.646;-113.674;2023-04-24T06:30:51;6.68;;;1.52;;
64686;SDS011;51113;53.646;-113.674;2023-04-24T06:33:20;6.45;;;1.40;;
64686;SDS011;51113;53.646;-113.674;2023-04-24T06:35:49;3.17;;;1.30;;
64686;SDS011;51113;53.646;-113.674;2023-04-24T06:38:18;4.72;;;1.63;;
64686;SDS011;51113;53.646;-113.674;2023-04-24T06:40:46;8.20;;;1.77;;
64686;SDS011;51113;53.646;-113.674;2023-04-24T06:43:15;4.95;;;1.50;;
64686;SDS011;51113;53.646;-113.674;2023-04-24T06:45:43;5.03;;;1.40;;
64686;SDS011;51113;53.646;-113.674;2023-04-24T06:48:12;5.70;;;1.50;;
64686;SDS011;51113;53.646;-113.674;2023-04-24T06:50:41;11.40;;;1.60;;
64686;SDS011;51113;53.646;-113.674;2023-04-24T06:53:09;5.32;;;1.45;;
64686;SDS011;51113;53.646;-113.674;2023-04-24T06:55:40;6.95;;;2.25;;
64686;SDS011;51113;53.646;-113.674;2023-04-24T06:58:09;4.18;;;1.20;;
64686;SDS011;51113;53.646;-113.674;2023-04-24T07:00:38;4.82;;;1.40;;
64686;SDS011;51113;53.646;-113.674;2023-04-24T07:03:06;4.22;;;1.70;;
64686;SDS011;51113;53.646;-113.674;2023-04-24T07:05:36;8.45;;;1.50;;
64686;SDS011;51113;53.646;-113.674;2023-04-24T07:08:05;5.60;;;1.45;;
64686;SDS011;51113;53.646;-113.674;2023-04-24T07:10:34;4.82;;;1.30;;
64686;SDS011;51113;53.646;-113.674;2023-04-24T07:13:03;2.03;;;1.30;;
64686;SDS011;51113;53.646;-113.674;2023-04-24T07:15:32;4.75;;;1.30;;
64686;SDS011;51113;53.646;-113.674;2023-04-24T07:18:00;3.15;;;1.60;;
64686;SDS011;51113;53.646;-113.674;2023-04-24T07:20:31;3.55;;;1.40;;
64686;SDS011;51113;53.646;-113.674;2023-04-24T07:23:01;2.97;;;1.40;;
64686;SDS011;51113;53.646;-113.674;2023-04-24T07:25:30;4.43;;;1.50;;
64686;SDS011;51113;53.646;-113.674;2023-04-24T07:27:59;4.50;;;1.42;;
64686;SDS011;51113;53.646;-113.674;2023-04-24T07:30:28;9.60;;;1.38;;
64686;SDS011;51113;53.646;-113.674;2023-04-24T07:32:57;2.90;;;1.60;;
64686;SDS011;51113;53.646;-113.674;2023-04-24T07:35:26;6.35;;;2.15;;
64686;SDS011;51113;53.646;-113.674;2023-04-24T07:37:55;3.85;;;1.67;;
64686;SDS011;51113;53.646;-113.674;2023-04-24T07:40:24;4.95;;;1.55;;
64686;SDS011;51113;53.646;-113.674;2023-04-24T07:42:53;3.22;;;1.60;;
64686;SDS011;51113;53.646;-113.674;2023-04-24T07:45:21;2.88;;;1.50;;
64686;SDS011;51113;53.646;-113.674;2023-04-24T07:47:51;4.68;;;1.65;;
64686;SDS011;51113;53.646;-113.674;2023-04-24T07:50:20;5.65;;;1.55;;
64686;SDS011;51113;53.646;-113.674;2023-04-24T07:52:48;7.90;;;1.80;;
64686;SDS011;51113;53.646;-113.674;2023-04-24T07:55:18;3.42;;;1.80;;
64686;SDS011;51113;53.646;-113.674;2023-04-24T07:57:51;3.00;;;1.60;;
64686;SDS011;51113;53.646;-113.674;2023-04-24T08:00:19;3.95;;;1.60;;
64686;SDS011;51113;53.646;-113.674;2023-04-24T08:02:48;3.75;;;1.60;;
64686;SDS011;51113;53.646;-113.674;2023-04-24T08:05:17;4.38;;;1.42;;
64686;SDS011;51113;53.646;-113.674;2023-04-24T08:07:47;2.47;;;1.60;;
64686;SDS011;51113;53.646;-113.674;2023-04-24T08:10:18;2.92;;;1.58;;
64686;SDS011;51113;53.646;-113.674;2023-04-24T08:12:46;2.42;;;1.40;;
64686;SDS011;51113;53.646;-113.674;2023-04-24T08:15:15;4.00;;;1.58;;
64686;SDS011;51113;53.646;-113.674;2023-04-24T08:17:43;8.10;;;1.65;;
64686;SDS011;51113;53.646;-113.674;2023-04-24T08:20:13;4.07;;;1.33;;
64686;SDS011;51113;53.646;-113.674;2023-04-24T08:22:42;2.60;;;1.50;;
64686;SDS011;51113;53.646;-113.674;2023-04-24T08:25:11;4.72;;;1.58;;
64686;SDS011;51113;53.646;-113.674;2023-04-24T08:27:40;4.25;;;1.50;;
64686;SDS011;51113;53.646;-113.674;2023-04-24T08:30:08;4.05;;;1.30;;
64686;SDS011;51113;53.646;-113.674;2023-04-24T08:32:38;5.00;;;1.60;;
64686;SDS011;51113;53.646;-113.674;2023-04-24T08:35:07;2.90;;;1.50;;
64686;SDS011;51113;53.646;-113.674;2023-04-24T08:37:37;3.45;;;1.45;;
64686;SDS011;51113;53.646;-113.674;2023-04-24T08:40:06;2.83;;;1.55;;
64686;SDS011;51113;53.646;-113.674;2023-04-24T08:42:42;3.20;;;1.70;;
64686;SDS011;51113;53.646;-113.674;2023-04-24T08:45:12;4.32;;;1.45;;
64686;SDS011;51113;53.646;-113.674;2023-04-24T08:47:41;6.05;;;1.60;;
64686;SDS011;51113;53.646;-113.674;2023-04-24T08:50:10;7.78;;;1.63;;
64686;SDS011;51113;53.646;-113.674;2023-04-24T08:52:40;3.00;;;1.60;;
64686;SDS011;51113;53.646;-113.674;2023-04-24T08:55:10;5.97;;;1.58;;
64686;SDS011;51113;53.646;-113.674;2023-04-24T08:57:40;4.78;;;1.63;;
64686;SDS011;51113;53.646;-113.674;2023-04-24T09:00:09;4.72;;;1.60;;
64686;SDS011;51113;53.646;-113.674;2023-04-24T09:02:44;4.47;;;1.45;;
64686;SDS011;51113;53.646;-113.674;2023-04-24T09:05:16;5.90;;;1.83;;
64686;SDS011;51113;53.646;-113.674;2023-04-24T09:07:48;5.35;;;1.73;;
64686;SDS011;51113;53.646;-113.674;2023-04-24T09:10:24;4.95;;;1.65;;
64686;SDS011;51113;53.646;-113.674;2023-04-24T09:12:53;3.60;;;1.58;;
64686;SDS011;51113;53.646;-113.674;2023-04-24T09:15:23;3.85;;;1.60;;
64686;SDS011;51113;53.646;-113.674;2023-04-24T09:17:53;5.97;;;1.58;;
64686;SDS011;51113;53.646;-113.674;2023-04-24T09:20:21;2.60;;;1.77;;
64686;SDS011;51113;53.646;-113.674;2023-04-24T09:22:53;2.65;;;1.73;;
64686;SDS011;51113;53.646;-113.674;2023-04-24T09:25:31;4.25;;;1.73;;
64686;SDS011;51113;53.646;-113.674;2023-04-24T09:28:02;5.88;;;2.00;;
64686;SDS011;51113;53.646;-113.674;2023-04-24T09:30:32;4.40;;;1.90;;
64686;SDS011;51113;53.646;-113.674;2023-04-24T09:33:10;5.25;;;1.73;;
64686;SDS011;51113;53.646;-113.674;2023-04-24T09:35:48;6.07;;;1.77;;
64686;SDS011;51113;53.646;-113.674;2023-04-24T09:38:19;4.50;;;1.60;;
64686;SDS011;51113;53.646;-113.674;2023-04-24T09:41:06;8.50;;;2.03;;
64686;SDS011;51113;53.646;-113.674;2023-04-24T09:43:36;3.00;;;1.90;;
64686;SDS011;51113;53.646;-113.674;2023-04-24T09:46:05;9.60;;;1.90;;
64686;SDS011;51113;53.646;-113.674;2023-04-24T09:48:37;4.27;;;1.80;;
64686;SDS011;51113;53.646;-113.674;2023-04-24T09:51:05;6.47;;;1.70;;
64686;SDS011;51113;53.646;-113.674;2023-04-24T09:53:44;7.13;;;2.03;;
64686;SDS011;51113;53.646;-113.674;2023-04-24T09:56:14;3.38;;;1.70;;
64686;SDS011;51113;53.646;-113.674;2023-04-24T09:58:44;8.52;;;1.90;;
64686;SDS011;51113;53.646;-113.674;2023-04-24T10:01:15;9.82;;;1.80;;
64686;SDS011;51113;53.646;-113.674;2023-04-24T10:03:44;8.00;;;1.70;;
64686;SDS011;51113;53.646;-113.674;2023-04-24T10:06:13;6.47;;;2.00;;
64686;SDS011;51113;53.646;-113.674;2023-04-24T10:08:43;2.85;;;1.83;;
64686;SDS011;51113;53.646;-113.674;2023-04-24T10:11:14;6.78;;;2.00;;
64686;SDS011;51113;53.646;-113.674;2023-04-24T10:13:43;2.75;;;1.75;;
64686;SDS011;51113;53.646;-113.674;2023-04-24T10:16:12;5.50;;;1.95;;
64686;SDS011;51113;53.646;-113.674;2023-04-24T10:18:42;8.68;;;2.00;;
64686;SDS011;51113;53.646;-113.674;2023-04-24T10:21:11;5.55;;;2.17;;
64686;SDS011;51113;53.646;-113.674;2023-04-24T10:23:40;2.72;;;1.80;;
64686;SDS011;51113;53.646;-113.674;2023-04-24T10:26:12;5.07;;;2.10;;
64686;SDS011;51113;53.646;-113.674;2023-04-24T10:28:46;6.57;;;1.75;;
64686;SDS011;51113;53.646;-113.674;2023-04-24T10:31:15;3.45;;;1.80;;
64686;SDS011;51113;53.646;-113.674;2023-04-24T10:33:43;4.38;;;2.08;;
64686;SDS011;51113;53.646;-113.674;2023-04-24T10:36:14;2.78;;;1.98;;
64686;SDS011;51113;53.646;-113.674;2023-04-24T10:38:45;4.50;;;1.80;;
64686;SDS011;51113;53.646;-113.674;2023-04-24T10:41:16;6.32;;;2.15;;
64686;SDS011;51113;53.646;-113.674;2023-04-24T10:46:39;6.88;;;1.92;;
64686;SDS011;51113;53.646;-113.674;2023-04-24T10:51:50;4.15;;;2.20;;
64686;SDS011;51113;53.646;-113.674;2023-04-24T10:54:27;5.65;;;2.83;;
64686;SDS011;51113;53.646;-113.674;2023-04-24T10:59:50;5.88;;;2.58;;
64686;SDS011;51113;53.646;-113.674;2023-04-24T11:02:37;8.13;;;2.30;;
64686;SDS011;51113;53.646;-113.674;2023-04-24T11:05:08;6.68;;;2.30;;
64686;SDS011;51113;53.646;-113.674;2023-04-24T11:08:42;3.97;;;2.47;;
64686;SDS011;51113;53.646;-113.674;2023-04-24T11:10:39;6.38;;;2.50;;
64686;SDS011;51113;53.646;-113.674;2023-04-24T11:13:20;5.40;;;2.78;;
64686;SDS011;51113;53.646;-113.674;2023-04-24T11:18:42;4.63;;;2.30;;
64686;SDS011;51113;53.646;-113.674;2023-04-24T11:21:18;5.57;;;2.75;;
64686;SDS011;51113;53.646;-113.674;2023-04-24T11:23:47;9.02;;;2.28;;
64686;SDS011;51113;53.646;-113.674;2023-04-24T11:26:19;7.45;;;2.63;;
64686;SDS011;51113;53.646;-113.674;2023-04-24T11:28:51;5.45;;;2.92;;
64686;SDS011;51113;53.646;-113.674;2023-04-24T11:31:36;4.93;;;2.20;;
64686;SDS011;51113;53.646;-113.674;2023-04-24T11:34:10;3.65;;;2.40;;
64686;SDS011;51113;53.646;-113.674;2023-04-24T11:36:42;4.35;;;2.00;;
64686;SDS011;51113;53.646;-113.674;2023-04-24T11:39:11;5.93;;;2.30;;
64686;SDS011;51113;53.646;-113.674;2023-04-24T11:41:40;7.38;;;2.95;;
64686;SDS011;51113;53.646;-113.674;2023-04-24T11:44:09;4.55;;;2.53;;
64686;SDS011;51113;53.646;-113.674;2023-04-24T11:46:40;4.68;;;2.47;;
64686;SDS011;51113;53.646;-113.674;2023-04-24T11:49:09;7.05;;;2.55;;
64686;SDS011;51113;53.646;-113.674;2023-04-24T11:51:37;5.20;;;3.13;;
64686;SDS011;51113;53.646;-113.674;2023-04-24T11:54:19;8.75;;;3.65;;
64686;SDS011;51113;53.646;-113.674;2023-04-24T11:56:49;8.50;;;4.25;;
64686;SDS011;51113;53.646;-113.674;2023-04-24T11:59:18;9.68;;;4.20;;
64686;SDS011;51113;53.646;-113.674;2023-04-24T12:01:48;8.45;;;3.20;;
64686;SDS011;51113;53.646;-113.674;2023-04-24T12:04:17;8.75;;;3.45;;
64686;SDS011;51113;53.646;-113.674;2023-04-24T12:07:00;10.35;;;3.33;;
64686;SDS011;51113;53.646;-113.674;2023-04-24T12:09:39;6.55;;;2.72;;
64686;SDS011;51113;53.646;-113.674;2023-04-24T12:12:14;5.40;;;2.78;;
64686;SDS011;51113;53.646;-113.674;2023-04-24T12:14:48;5.78;;;2.53;;
64686;SDS011;51113;53.646;-113.674;2023-04-24T12:17:17;3.42;;;2.28;;
64686;SDS011;51113;53.646;-113.674;2023-04-24T12:19:57;7.93;;;3.10;;
64686;SDS011;51113;53.646;-113.674;2023-04-24T12:25:16;7.65;;;2.80;;
64686;SDS011;51113;53.646;-113.674;2023-04-24T12:27:46;7.72;;;2.80;;
64686;SDS011;51113;53.646;-113.674;2023-04-24T12:30:25;6.07;;;2.80;;
64686;SDS011;51113;53.646;-113.674;2023-04-24T12:32:59;4.53;;;2.70;;
64686;SDS011;51113;53.646;-113.674;2023-04-24T12:35:29;8.15;;;2.47;;
64686;SDS011;51113;53.646;-113.674;2023-04-24T12:38:09;7.45;;;3.25;;
64686;SDS011;51113;53.646;-113.674;2023-04-24T12:40:41;6.07;;;2.95;;
64686;SDS011;51113;53.646;-113.674;2023-04-24T12:43:19;4.72;;;2.70;;
64686;SDS011;51113;53.646;-113.674;2023-04-24T12:45:48;9.38;;;3.05;;
64686;SDS011;51113;53.646;-113.674;2023-04-24T12:48:17;5.18;;;2.58;;
64686;SDS011;51113;53.646;-113.674;2023-04-24T12:50:45;10.25;;;3.10;;
64686;SDS011;51113;53.646;-113.674;2023-04-24T12:53:14;7.78;;;3.08;;
64686;SDS011;51113;53.646;-113.674;2023-04-24T12:55:45;7.05;;;2.83;;
64686;SDS011;51113;53.646;-113.674;2023-04-24T12:58:14;14.63;;;3.22;;
64686;SDS011;51113;53.646;-113.674;2023-04-24T13:00:42;7.63;;;3.00;;
64686;SDS011;51113;53.646;-113.674;2023-04-24T13:03:13;8.70;;;2.80;;
64686;SDS011;51113;53.646;-113.674;2023-04-24T13:05:43;7.50;;;3.13;;
64686;SDS011;51113;53.646;-113.674;2023-04-24T13:08:11;6.43;;;3.25;;
64686;SDS011;51113;53.646;-113.674;2023-04-24T13:10:40;6.10;;;2.97;;
64686;SDS011;51113;53.646;-113.674;2023-04-24T13:13:09;7.57;;;2.80;;
64686;SDS011;51113;53.646;-113.674;2023-04-24T13:15:37;7.47;;;3.00;;
64686;SDS011;51113;53.646;-113.674;2023-04-24T13:18:06;5.88;;;3.03;;
64686;SDS011;51113;53.646;-113.674;2023-04-24T13:20:34;10.60;;;3.22;;
64686;SDS011;51113;53.646;-113.674;2023-04-24T13:23:03;5.60;;;2.80;;
64686;SDS011;51113;53.646;-113.674;2023-04-24T13:25:34;11.40;;;3.33;;
64686;SDS011;51113;53.646;-113.674;2023-04-24T13:28:03;7.45;;;3.30;;
64686;SDS011;51113;53.646;-113.674;2023-04-24T13:30:32;6.82;;;2.90;;
64686;SDS011;51113;53.646;-113.674;2023-04-24T13:33:01;10.32;;;3.15;;
64686;SDS011;51113;53.646;-113.674;2023-04-24T13:35:29;10.48;;;3.20;;
64686;SDS011;51113;53.646;-113.674;2023-04-24T13:37:58;11.45;;;3.00;;
64686;SDS011;51113;53.646;-113.674;2023-04-24T13:40:28;8.63;;;2.80;;
64686;SDS011;51113;53.646;-113.674;2023-04-24T13:42:57;9.27;;;3.13;;
64686;SDS011;51113;53.646;-113.674;2023-04-24T13:45:26;12.55;;;3.30;;
64686;SDS011;51113;53.646;-113.674;2023-04-24T13:47:54;8.73;;;3.00;;
64686;SDS011;51113;53.646;-113.674;2023-04-24T13:50:24;12.00;;;3.25;;
64686;SDS011;51113;53.646;-113.674;2023-04-24T13:52:52;9.38;;;3.15;;
64686;SDS011;51113;53.646;-113.674;2023-04-24T13:55:22;8.60;;;3.30;;
64686;SDS011;51113;53.646;-113.674;2023-04-24T13:57:50;7.53;;;2.95;;
64686;SDS011;51113;53.646;-113.674;2023-04-24T14:00:19;14.48;;;3.30;;
64686;SDS011;51113;53.646;-113.674;2023-04-24T14:02:48;10.18;;;2.85;;
64686;SDS011;51113;53.646;-113.674;2023-04-24T14:05:17;14.57;;;2.92;;
64686;SDS011;51113;53.646;-113.674;2023-04-24T14:07:46;13.13;;;3.10;;
64686;SDS011;51113;53.646;-113.674;2023-04-24T14:10:14;10.93;;;3.03;;
64686;SDS011;51113;53.646;-113.674;2023-04-24T14:12:43;8.80;;;3.20;;
64686;SDS011;51113;53.646;-113.674;2023-04-24T14:15:12;10.88;;;3.10;;
64686;SDS011;51113;53.646;-113.674;2023-04-24T14:17:41;8.45;;;3.00;;
64686;SDS011;51113;53.646;-113.674;2023-04-24T14:20:09;9.23;;;2.88;;
64686;SDS011;51113;53.646;-113.674;2023-04-24T14:22:39;14.10;;;3.53;;
64686;SDS011;51113;53.646;-113.674;2023-04-24T14:25:07;8.50;;;3.08;;
64686;SDS011;51113;53.646;-113.674;2023-04-24T14:27:36;9.18;;;2.92;;
64686;SDS011;51113;53.646;-113.674;2023-04-24T14:30:05;7.90;;;3.13;;
64686;SDS011;51113;53.646;-113.674;2023-04-24T14:32:35;9.68;;;2.97;;
64686;SDS011;51113;53.646;-113.674;2023-04-24T14:35:04;8.43;;;2.72;;
64686;SDS011;51113;53.646;-113.674;2023-04-24T14:37:34;5.80;;;2.70;;